sensor_id;sensor_type;location;lat;lon;timestamp;P1;durP1;ratioP1;P2;durP2;ratioP2
23169;SDS011;11753;43.144;24.714;2022-09-23T00:00:30;3.80;;;2.70;;
23169;SDS011;11753;43.144;24.714;2022-09-23T00:01:30;3.97;;;2.58;;
23169;SDS011;11753;43.144;24.714;2022-09-23T00:02:34;3.42;;;2.20;;
23169;SDS011;11753;43.144;24.714;2022-09-23T00:03:35;3.33;;;2.47;;
23169;SDS011;11753;43.144;24.714;2022-09-23T00:04:38;3.63;;;2.50;;
23169;SDS011;11753;43.144;24.714;2022-09-23T00:05:38;4.05;;;2.55;;
23169;SDS011;11753;43.144;24.714;2022-09-23T00:06:39;3.95;;;2.63;;
23169;SDS011;11753;43.144;24.714;2022-09-23T00:07:41;4.00;;;2.47;;
23169;SDS011;11753;43.144;24.714;2022-09-23T00:08:41;3.47;;;2.35;;
23169;SDS011;11753;43.144;24.714;2022-09-23T00:09:43;3.50;;;2.50;;
23169;SDS011;11753;43.144;24.714;2022-09-23T00:10:44;4.18;;;2.90;;
23169;SDS011;11753;43.144;24.714;2022-09-23T00:11:47;3.92;;;2.83;;
23169;SDS011;11753;43.144;24.714;2022-09-23T00:12:48;9.10;;;2.80;;
23169;SDS011;11753;43.144;24.714;2022-09-23T00:13:50;3.70;;;2.47;;
23169;SDS011;11753;43.144;24.714;2022-09-23T00:14:56;5.70;;;2.95;;
23169;SDS011;11753;43.144;24.714;2022-09-23T00:15:57;4.25;;;2.47;;
23169;SDS011;11753;43.144;24.714;2022-09-23T00:17:02;4.20;;;2.45;;
23169;SDS011;11753;43.144;24.714;2022-09-23T00:18:03;3.90;;;2.35;;
23169;SDS011;11753;43.144;24.714;2022-09-23T00:19:04;3.70;;;2.70;;
23169;SDS011;11753;43.144;24.714;2022-09-23T00:20:05;4.55;;;3.03;;
23169;SDS011;11753;43.144;24.714;2022-09-23T00:21:10;4.47;;;2.88;;
23169;SDS011;11753;43.144;24.714;2022-09-23T00:22:14;6.03;;;2.70;;
23169;SDS011;11753;43.144;24.714;2022-09-23T00:23:15;3.70;;;2.25;;
23169;SDS011;11753;43.144;24.714;2022-09-23T00:24:16;3.92;;;2.72;;
23169;SDS011;11753;43.144;24.714;2022-09-23T00:25:19;4.72;;;2.63;;
23169;SDS011;11753;43.144;24.714;2022-09-23T00:26:20;4.65;;;3.15;;
23169;SDS011;11753;43.144;24.714;2022-09-23T00:27:22;4.88;;;3.10;;
23169;SDS011;11753;43.144;24.714;2022-09-23T00:28:23;3.63;;;2.63;;
23169;SDS011;11753;43.144;24.714;2022-09-23T00:29:27;4.20;;;2.80;;
23169;SDS011;11753;43.144;24.714;2022-09-23T00:30:28;4.20;;;2.83;;
23169;SDS011;11753;43.144;24.714;2022-09-23T00:31:30;6.13;;;3.05;;
23169;SDS011;11753;43.144;24.714;2022-09-23T00:32:31;3.47;;;2.50;;
23169;SDS011;11753;43.144;24.714;2022-09-23T00:33:32;4.63;;;2.92;;
23169;SDS011;11753;43.144;24.714;2022-09-23T00:34:34;3.80;;;2.70;;
23169;SDS011;11753;43.144;24.714;2022-09-23T00:35:34;5.15;;;3.30;;
23169;SDS011;11753;43.144;24.714;2022-09-23T00:36:35;6.72;;;3.33;;
23169;SDS011;11753;43.144;24.714;2022-09-23T00:37:36;4.35;;;3.10;;
23169;SDS011;11753;43.144;24.714;2022-09-23T00:38:37;4.05;;;2.90;;
23169;SDS011;11753;43.144;24.714;2022-09-23T00:39:38;4.63;;;3.20;;
23169;SDS011;11753;43.144;24.714;2022-09-23T00:40:43;4.03;;;2.60;;
23169;SDS011;11753;43.144;24.714;2022-09-23T00:41:45;6.78;;;2.95;;
23169;SDS011;11753;43.144;24.714;2022-09-23T00:42:46;3.80;;;2.70;;
23169;SDS011;11753;43.144;24.714;2022-09-23T00:43:50;5.03;;;3.10;;
23169;SDS011;11753;43.144;24.714;2022-09-23T00:45:56;4.40;;;3.15;;
23169;SDS011;11753;43.144;24.714;2022-09-23T00:46:57;4.30;;;3.25;;
23169;SDS011;11753;43.144;24.714;2022-09-23T00:48:00;4.47;;;3.00;;
23169;SDS011;11753;43.144;24.714;2022-09-23T00:49:07;5.20;;;2.75;;
23169;SDS011;11753;43.144;24.714;2022-09-23T00:51:26;4.72;;;3.13;;
23169;SDS011;11753;43.144;24.714;2022-09-23T00:52:33;4.50;;;3.08;;
23169;SDS011;11753;43.144;24.714;2022-09-23T00:53:36;4.97;;;2.55;;
23169;SDS011;11753;43.144;24.714;2022-09-23T00:54:38;7.63;;;3.10;;
23169;SDS011;11753;43.144;24.714;2022-09-23T00:55:43;4.20;;;2.90;;
23169;SDS011;11753;43.144;24.714;2022-09-23T00:56:48;4.80;;;2.83;;
23169;SDS011;11753;43.144;24.714;2022-09-23T00:57:49;6.10;;;2.78;;
23169;SDS011;11753;43.144;24.714;2022-09-23T00:58:54;4.85;;;2.92;;
23169;SDS011;11753;43.144;24.714;2022-09-23T00:59:54;5.25;;;3.10;;
23169;SDS011;11753;43.144;24.714;2022-09-23T01:01:00;4.50;;;2.60;;
23169;SDS011;11753;43.144;24.714;2022-09-23T01:02:02;3.60;;;2.72;;
23169;SDS011;11753;43.144;24.714;2022-09-23T01:03:05;4.53;;;3.00;;
23169;SDS011;11753;43.144;24.714;2022-09-23T01:04:06;4.55;;;2.90;;
23169;SDS011;11753;43.144;24.714;2022-09-23T01:05:07;4.43;;;2.70;;
23169;SDS011;11753;43.144;24.714;2022-09-23T01:06:08;3.65;;;2.72;;
23169;SDS011;11753;43.144;24.714;2022-09-23T01:07:09;5.50;;;3.08;;
23169;SDS011;11753;43.144;24.714;2022-09-23T01:08:10;5.13;;;3.30;;
23169;SDS011;11753;43.144;24.714;2022-09-23T01:09:13;4.30;;;3.20;;
23169;SDS011;11753;43.144;24.714;2022-09-23T01:10:14;4.53;;;2.75;;
23169;SDS011;11753;43.144;24.714;2022-09-23T01:12:25;8.05;;;3.38;;
23169;SDS011;11753;43.144;24.714;2022-09-23T01:17:58;4.38;;;3.15;;
23169;SDS011;11753;43.144;24.714;2022-09-23T01:20:57;5.07;;;2.97;;
23169;SDS011;11753;43.144;24.714;2022-09-23T01:26:08;5.78;;;3.35;;
23169;SDS011;11753;43.144;24.714;2022-09-23T01:27:41;5.13;;;2.83;;
23169;SDS011;11753;43.144;24.714;2022-09-23T01:30:16;4.18;;;3.10;;
23169;SDS011;11753;43.144;24.714;2022-09-23T01:31:57;4.75;;;3.25;;
23169;SDS011;11753;43.144;24.714;2022-09-23T01:33:12;4.72;;;3.20;;
23169;SDS011;11753;43.144;24.714;2022-09-23T01:34:20;4.15;;;3.17;;
23169;SDS011;11753;43.144;24.714;2022-09-23T01:36:39;4.47;;;2.97;;
23169;SDS011;11753;43.144;24.714;2022-09-23T01:39:27;5.25;;;3.00;;
23169;SDS011;11753;43.144;24.714;2022-09-23T01:40:39;5.03;;;3.08;;
23169;SDS011;11753;43.144;24.714;2022-09-23T01:41:59;4.68;;;3.40;;
23169;SDS011;11753;43.144;24.714;2022-09-23T01:43:13;4.88;;;3.03;;
23169;SDS011;11753;43.144;24.714;2022-09-23T01:45:42;5.85;;;3.30;;
23169;SDS011;11753;43.144;24.714;2022-09-23T01:47:15;4.57;;;3.35;;
23169;SDS011;11753;43.144;24.714;2022-09-23T01:48:18;6.40;;;3.38;;
23169;SDS011;11753;43.144;24.714;2022-09-23T01:49:25;5.40;;;3.42;;
23169;SDS011;11753;43.144;24.714;2022-09-23T01:51:59;4.90;;;3.20;;
23169;SDS011;11753;43.144;24.714;2022-09-23T01:53:10;3.90;;;2.85;;
23169;SDS011;11753;43.144;24.714;2022-09-23T01:54:24;4.45;;;3.22;;
23169;SDS011;11753;43.144;24.714;2022-09-23T01:55:32;4.40;;;2.92;;
23169;SDS011;11753;43.144;24.714;2022-09-23T01:57:43;8.60;;;3.55;;
23169;SDS011;11753;43.144;24.714;2022-09-23T02:00:17;5.43;;;3.25;;
23169;SDS011;11753;43.144;24.714;2022-09-23T02:01:44;5.00;;;3.38;;
23169;SDS011;11753;43.144;24.714;2022-09-23T02:02:48;4.90;;;3.13;;
23169;SDS011;11753;43.144;24.714;2022-09-23T02:04:12;4.35;;;3.28;;
23169;SDS011;11753;43.144;24.714;2022-09-23T02:07:02;4.90;;;2.83;;
23169;SDS011;11753;43.144;24.714;2022-09-23T02:08:17;6.28;;;3.30;;
23169;SDS011;11753;43.144;24.714;2022-09-23T02:09:41;4.63;;;3.05;;
23169;SDS011;11753;43.144;24.714;2022-09-23T02:10:46;4.10;;;2.95;;
23169;SDS011;11753;43.144;24.714;2022-09-23T02:11:59;4.35;;;3.15;;
23169;SDS011;11753;43.144;24.714;2022-09-23T02:13:07;4.28;;;2.92;;
23169;SDS011;11753;43.144;24.714;2022-09-23T02:14:32;4.32;;;3.25;;
23169;SDS011;11753;43.144;24.714;2022-09-23T02:15:40;4.90;;;3.72;;
23169;SDS011;11753;43.144;24.714;2022-09-23T02:16:49;5.85;;;2.97;;
23169;SDS011;11753;43.144;24.714;2022-09-23T02:18:01;5.50;;;3.33;;
23169;SDS011;11753;43.144;24.714;2022-09-23T02:19:10;5.75;;;3.35;;
23169;SDS011;11753;43.144;24.714;2022-09-23T02:20:14;4.28;;;3.05;;
23169;SDS011;11753;43.144;24.714;2022-09-23T02:21:26;4.70;;;3.40;;
23169;SDS011;11753;43.144;24.714;2022-09-23T02:22:40;3.60;;;2.58;;
23169;SDS011;11753;43.144;24.714;2022-09-23T02:24:14;4.95;;;3.22;;
23169;SDS011;11753;43.144;24.714;2022-09-23T02:25:19;4.40;;;3.22;;
23169;SDS011;11753;43.144;24.714;2022-09-23T02:30:30;5.70;;;3.60;;
23169;SDS011;11753;43.144;24.714;2022-09-23T02:33:05;5.50;;;3.97;;
23169;SDS011;11753;43.144;24.714;2022-09-23T02:34:25;6.60;;;3.47;;
23169;SDS011;11753;43.144;24.714;2022-09-23T02:35:54;5.05;;;2.80;;
23169;SDS011;11753;43.144;24.714;2022-09-23T02:37:07;4.65;;;3.30;;
23169;SDS011;11753;43.144;24.714;2022-09-23T02:45:23;5.22;;;3.30;;
23169;SDS011;11753;43.144;24.714;2022-09-23T02:46:24;5.43;;;3.35;;
23169;SDS011;11753;43.144;24.714;2022-09-23T02:47:27;3.97;;;3.00;;
23169;SDS011;11753;43.144;24.714;2022-09-23T02:49:35;3.97;;;3.10;;
23169;SDS011;11753;43.144;24.714;2022-09-23T02:50:36;6.13;;;3.38;;
23169;SDS011;11753;43.144;24.714;2022-09-23T02:51:38;5.20;;;3.42;;
23169;SDS011;11753;43.144;24.714;2022-09-23T02:52:40;4.35;;;3.40;;
23169;SDS011;11753;43.144;24.714;2022-09-23T02:53:41;4.45;;;3.38;;
23169;SDS011;11753;43.144;24.714;2022-09-23T02:54:42;5.18;;;3.13;;
23169;SDS011;11753;43.144;24.714;2022-09-23T02:55:43;4.18;;;2.92;;
23169;SDS011;11753;43.144;24.714;2022-09-23T02:56:45;5.97;;;3.42;;
23169;SDS011;11753;43.144;24.714;2022-09-23T02:57:48;4.18;;;3.08;;
23169;SDS011;11753;43.144;24.714;2022-09-23T02:58:52;5.63;;;3.55;;
23169;SDS011;11753;43.144;24.714;2022-09-23T02:59:54;5.28;;;3.33;;
23169;SDS011;11753;43.144;24.714;2022-09-23T03:02:06;4.90;;;3.33;;
23169;SDS011;11753;43.144;24.714;2022-09-23T03:06:13;6.45;;;3.50;;
23169;SDS011;11753;43.144;24.714;2022-09-23T03:08:50;4.78;;;3.38;;
23169;SDS011;11753;43.144;24.714;2022-09-23T03:10:06;4.88;;;3.63;;
23169;SDS011;11753;43.144;24.714;2022-09-23T03:11:20;4.90;;;3.28;;
23169;SDS011;11753;43.144;24.714;2022-09-23T03:12:41;6.28;;;3.75;;
23169;SDS011;11753;43.144;24.714;2022-09-23T03:14:03;5.75;;;3.50;;
23169;SDS011;11753;43.144;24.714;2022-09-23T03:17:05;4.85;;;3.13;;
23169;SDS011;11753;43.144;24.714;2022-09-23T03:18:30;4.78;;;3.45;;
23169;SDS011;11753;43.144;24.714;2022-09-23T03:22:58;5.10;;;3.65;;
23169;SDS011;11753;43.144;24.714;2022-09-23T03:24:06;5.32;;;3.60;;
23169;SDS011;11753;43.144;24.714;2022-09-23T03:25:11;4.95;;;3.70;;
23169;SDS011;11753;43.144;24.714;2022-09-23T03:26:23;4.55;;;3.35;;
23169;SDS011;11753;43.144;24.714;2022-09-23T03:27:30;6.43;;;3.70;;
23169;SDS011;11753;43.144;24.714;2022-09-23T03:28:37;5.50;;;3.53;;
23169;SDS011;11753;43.144;24.714;2022-09-23T03:29:43;4.32;;;3.50;;
23169;SDS011;11753;43.144;24.714;2022-09-23T03:30:48;4.60;;;3.60;;
23169;SDS011;11753;43.144;24.714;2022-09-23T03:31:52;4.45;;;3.53;;
23169;SDS011;11753;43.144;24.714;2022-09-23T03:32:54;7.38;;;3.63;;
23169;SDS011;11753;43.144;24.714;2022-09-23T03:34:00;4.38;;;3.38;;
23169;SDS011;11753;43.144;24.714;2022-09-23T03:35:06;8.95;;;3.90;;
23169;SDS011;11753;43.144;24.714;2022-09-23T03:36:08;8.07;;;4.70;;
23169;SDS011;11753;43.144;24.714;2022-09-23T03:37:34;6.18;;;4.68;;
23169;SDS011;11753;43.144;24.714;2022-09-23T03:38:41;8.40;;;4.35;;
23169;SDS011;11753;43.144;24.714;2022-09-23T03:39:49;5.22;;;3.53;;
23169;SDS011;11753;43.144;24.714;2022-09-23T03:40:54;6.00;;;4.35;;
23169;SDS011;11753;43.144;24.714;2022-09-23T03:41:58;8.18;;;4.10;;
23169;SDS011;11753;43.144;24.714;2022-09-23T03:43:02;6.43;;;4.43;;
23169;SDS011;11753;43.144;24.714;2022-09-23T03:44:04;5.43;;;4.20;;
23169;SDS011;11753;43.144;24.714;2022-09-23T03:45:10;5.65;;;4.00;;
23169;SDS011;11753;43.144;24.714;2022-09-23T03:46:18;5.90;;;4.00;;
23169;SDS011;11753;43.144;24.714;2022-09-23T03:47:19;6.10;;;3.97;;
23169;SDS011;11753;43.144;24.714;2022-09-23T03:48:20;4.53;;;3.53;;
23169;SDS011;11753;43.144;24.714;2022-09-23T03:49:28;9.40;;;4.47;;
23169;SDS011;11753;43.144;24.714;2022-09-23T03:51:35;6.00;;;3.72;;
23169;SDS011;11753;43.144;24.714;2022-09-23T03:52:36;5.30;;;3.58;;
23169;SDS011;11753;43.144;24.714;2022-09-23T03:53:39;4.18;;;3.30;;
23169;SDS011;11753;43.144;24.714;2022-09-23T03:54:40;5.45;;;3.92;;
23169;SDS011;11753;43.144;24.714;2022-09-23T03:55:44;4.88;;;3.70;;
23169;SDS011;11753;43.144;24.714;2022-09-23T03:56:46;6.30;;;4.35;;
23169;SDS011;11753;43.144;24.714;2022-09-23T03:57:47;6.03;;;4.03;;
23169;SDS011;11753;43.144;24.714;2022-09-23T03:58:48;5.65;;;4.28;;
23169;SDS011;11753;43.144;24.714;2022-09-23T03:59:49;5.65;;;3.50;;
23169;SDS011;11753;43.144;24.714;2022-09-23T04:00:51;5.38;;;4.00;;
23169;SDS011;11753;43.144;24.714;2022-09-23T04:01:54;5.18;;;3.83;;
23169;SDS011;11753;43.144;24.714;2022-09-23T04:02:55;5.47;;;3.80;;
23169;SDS011;11753;43.144;24.714;2022-09-23T04:03:56;4.20;;;3.22;;
23169;SDS011;11753;43.144;24.714;2022-09-23T04:04:57;5.43;;;3.30;;
23169;SDS011;11753;43.144;24.714;2022-09-23T04:05:58;5.13;;;3.55;;
23169;SDS011;11753;43.144;24.714;2022-09-23T04:07:01;6.05;;;3.78;;
23169;SDS011;11753;43.144;24.714;2022-09-23T04:08:03;5.80;;;3.38;;
23169;SDS011;11753;43.144;24.714;2022-09-23T04:09:04;4.68;;;3.47;;
23169;SDS011;11753;43.144;24.714;2022-09-23T04:10:05;5.85;;;4.10;;
23169;SDS011;11753;43.144;24.714;2022-09-23T04:11:06;5.57;;;3.85;;
23169;SDS011;11753;43.144;24.714;2022-09-23T04:12:07;5.38;;;3.72;;
23169;SDS011;11753;43.144;24.714;2022-09-23T04:13:13;5.90;;;3.70;;
23169;SDS011;11753;43.144;24.714;2022-09-23T04:14:14;5.07;;;2.97;;
23169;SDS011;11753;43.144;24.714;2022-09-23T04:15:15;6.70;;;3.47;;
23169;SDS011;11753;43.144;24.714;2022-09-23T04:16:16;7.10;;;3.58;;
23169;SDS011;11753;43.144;24.714;2022-09-23T04:17:16;5.88;;;3.60;;
23169;SDS011;11753;43.144;24.714;2022-09-23T04:18:17;6.93;;;3.97;;
23169;SDS011;11753;43.144;24.714;2022-09-23T04:19:18;4.75;;;3.60;;
23169;SDS011;11753;43.144;24.714;2022-09-23T04:20:19;6.03;;;3.85;;
23169;SDS011;11753;43.144;24.714;2022-09-23T04:21:20;5.57;;;3.65;;
23169;SDS011;11753;43.144;24.714;2022-09-23T04:22:21;6.97;;;3.90;;
23169;SDS011;11753;43.144;24.714;2022-09-23T04:23:23;6.05;;;3.28;;
23169;SDS011;11753;43.144;24.714;2022-09-23T04:24:24;5.38;;;3.53;;
23169;SDS011;11753;43.144;24.714;2022-09-23T04:25:25;6.20;;;3.38;;
23169;SDS011;11753;43.144;24.714;2022-09-23T04:26:26;6.78;;;3.85;;
23169;SDS011;11753;43.144;24.714;2022-09-23T04:27:27;6.85;;;4.07;;
23169;SDS011;11753;43.144;24.714;2022-09-23T04:28:28;8.15;;;4.43;;
23169;SDS011;11753;43.144;24.714;2022-09-23T04:29:29;4.90;;;3.22;;
23169;SDS011;11753;43.144;24.714;2022-09-23T04:30:30;5.45;;;4.15;;
23169;SDS011;11753;43.144;24.714;2022-09-23T04:31:31;4.47;;;3.40;;
23169;SDS011;11753;43.144;24.714;2022-09-23T04:32:33;6.22;;;4.03;;
23169;SDS011;11753;43.144;24.714;2022-09-23T04:33:34;6.25;;;3.67;;
23169;SDS011;11753;43.144;24.714;2022-09-23T04:34:34;6.05;;;3.75;;
23169;SDS011;11753;43.144;24.714;2022-09-23T04:35:35;5.57;;;3.72;;
23169;SDS011;11753;43.144;24.714;2022-09-23T04:36:37;6.97;;;3.80;;
23169;SDS011;11753;43.144;24.714;2022-09-23T04:37:41;6.40;;;3.75;;
23169;SDS011;11753;43.144;24.714;2022-09-23T04:38:44;6.07;;;3.50;;
23169;SDS011;11753;43.144;24.714;2022-09-23T04:39:46;5.75;;;3.55;;
23169;SDS011;11753;43.144;24.714;2022-09-23T04:40:47;5.55;;;3.25;;
23169;SDS011;11753;43.144;24.714;2022-09-23T04:41:48;6.57;;;4.25;;
23169;SDS011;11753;43.144;24.714;2022-09-23T04:42:49;4.50;;;3.60;;
23169;SDS011;11753;43.144;24.714;2022-09-23T04:43:49;8.18;;;3.88;;
23169;SDS011;11753;43.144;24.714;2022-09-23T04:44:50;5.57;;;3.60;;
23169;SDS011;11753;43.144;24.714;2022-09-23T04:45:57;4.78;;;3.58;;
23169;SDS011;11753;43.144;24.714;2022-09-23T04:46:59;4.38;;;3.30;;
23169;SDS011;11753;43.144;24.714;2022-09-23T04:48:00;4.80;;;3.20;;
23169;SDS011;11753;43.144;24.714;2022-09-23T04:49:01;5.35;;;3.58;;
23169;SDS011;11753;43.144;24.714;2022-09-23T04:50:02;4.70;;;3.28;;
23169;SDS011;11753;43.144;24.714;2022-09-23T04:51:04;8.15;;;3.92;;
23169;SDS011;11753;43.144;24.714;2022-09-23T04:52:07;7.60;;;3.60;;
23169;SDS011;11753;43.144;24.714;2022-09-23T04:53:08;5.07;;;3.33;;
23169;SDS011;11753;43.144;24.714;2022-09-23T04:54:10;5.65;;;3.65;;
23169;SDS011;11753;43.144;24.714;2022-09-23T04:55:13;5.57;;;3.55;;
23169;SDS011;11753;43.144;24.714;2022-09-23T04:56:15;8.73;;;3.92;;
23169;SDS011;11753;43.144;24.714;2022-09-23T04:57:20;4.88;;;2.97;;
23169;SDS011;11753;43.144;24.714;2022-09-23T04:58:21;6.40;;;3.92;;
23169;SDS011;11753;43.144;24.714;2022-09-23T04:59:23;4.18;;;3.03;;
23169;SDS011;11753;43.144;24.714;2022-09-23T05:00:24;5.50;;;3.53;;
23169;SDS011;11753;43.144;24.714;2022-09-23T05:01:28;4.28;;;3.15;;
23169;SDS011;11753;43.144;24.714;2022-09-23T05:02:31;4.22;;;3.10;;
23169;SDS011;11753;43.144;24.714;2022-09-23T05:03:33;3.83;;;2.90;;
23169;SDS011;11753;43.144;24.714;2022-09-23T05:04:35;5.43;;;3.35;;
23169;SDS011;11753;43.144;24.714;2022-09-23T05:05:35;6.57;;;3.20;;
23169;SDS011;11753;43.144;24.714;2022-09-23T05:06:36;4.40;;;2.83;;
23169;SDS011;11753;43.144;24.714;2022-09-23T05:07:40;5.90;;;3.28;;
23169;SDS011;11753;43.144;24.714;2022-09-23T05:08:46;4.68;;;3.20;;
23169;SDS011;11753;43.144;24.714;2022-09-23T05:09:48;4.55;;;3.30;;
23169;SDS011;11753;43.144;24.714;2022-09-23T05:10:49;4.45;;;3.20;;
23169;SDS011;11753;43.144;24.714;2022-09-23T05:11:56;4.95;;;3.25;;
23169;SDS011;11753;43.144;24.714;2022-09-23T05:12:57;4.10;;;3.30;;
23169;SDS011;11753;43.144;24.714;2022-09-23T05:13:58;5.10;;;3.42;;
23169;SDS011;11753;43.144;24.714;2022-09-23T05:14:59;5.25;;;3.35;;
23169;SDS011;11753;43.144;24.714;2022-09-23T05:16:00;8.57;;;3.10;;
23169;SDS011;11753;43.144;24.714;2022-09-23T05:17:03;5.15;;;3.17;;
23169;SDS011;11753;43.144;24.714;2022-09-23T05:18:05;4.68;;;2.85;;
23169;SDS011;11753;43.144;24.714;2022-09-23T05:19:05;3.97;;;2.78;;
23169;SDS011;11753;43.144;24.714;2022-09-23T05:20:07;3.80;;;2.85;;
23169;SDS011;11753;43.144;24.714;2022-09-23T05:21:13;4.53;;;3.30;;
23169;SDS011;11753;43.144;24.714;2022-09-23T05:22:15;4.43;;;3.05;;
23169;SDS011;11753;43.144;24.714;2022-09-23T05:23:17;4.07;;;3.03;;
23169;SDS011;11753;43.144;24.714;2022-09-23T05:24:18;4.35;;;2.90;;
23169;SDS011;11753;43.144;24.714;2022-09-23T05:25:19;4.70;;;2.92;;
23169;SDS011;11753;43.144;24.714;2022-09-23T05:26:20;6.20;;;3.25;;
23169;SDS011;11753;43.144;24.714;2022-09-23T05:27:23;4.20;;;2.65;;
23169;SDS011;11753;43.144;24.714;2022-09-23T05:28:25;3.83;;;2.85;;
23169;SDS011;11753;43.144;24.714;2022-09-23T05:29:29;6.32;;;2.50;;
23169;SDS011;11753;43.144;24.714;2022-09-23T05:30:30;4.18;;;2.85;;
23169;SDS011;11753;43.144;24.714;2022-09-23T05:31:31;4.95;;;2.92;;
23169;SDS011;11753;43.144;24.714;2022-09-23T05:32:32;4.25;;;2.78;;
23169;SDS011;11753;43.144;24.714;2022-09-23T05:33:34;3.80;;;2.60;;
23169;SDS011;11753;43.144;24.714;2022-09-23T05:34:36;5.20;;;3.08;;
23169;SDS011;11753;43.144;24.714;2022-09-23T05:35:38;4.47;;;2.65;;
23169;SDS011;11753;43.144;24.714;2022-09-23T05:36:39;4.40;;;2.72;;
23169;SDS011;11753;43.144;24.714;2022-09-23T05:37:40;4.40;;;3.05;;
23169;SDS011;11753;43.144;24.714;2022-09-23T05:38:40;4.50;;;2.90;;
23169;SDS011;11753;43.144;24.714;2022-09-23T05:39:41;4.78;;;3.30;;
23169;SDS011;11753;43.144;24.714;2022-09-23T05:40:42;4.97;;;3.30;;
23169;SDS011;11753;43.144;24.714;2022-09-23T05:41:42;5.18;;;2.50;;
23169;SDS011;11753;43.144;24.714;2022-09-23T05:42:43;5.28;;;2.85;;
23169;SDS011;11753;43.144;24.714;2022-09-23T05:43:45;4.55;;;3.03;;
23169;SDS011;11753;43.144;24.714;2022-09-23T05:44:46;4.18;;;2.50;;
23169;SDS011;11753;43.144;24.714;2022-09-23T05:45:47;4.50;;;2.90;;
23169;SDS011;11753;43.144;24.714;2022-09-23T05:46:48;6.88;;;2.83;;
23169;SDS011;11753;43.144;24.714;2022-09-23T05:47:49;5.00;;;2.70;;
23169;SDS011;11753;43.144;24.714;2022-09-23T05:48:50;3.60;;;2.53;;
23169;SDS011;11753;43.144;24.714;2022-09-23T05:49:51;3.55;;;2.17;;
23169;SDS011;11753;43.144;24.714;2022-09-23T05:50:53;3.95;;;2.60;;
23169;SDS011;11753;43.144;24.714;2022-09-23T05:51:57;3.97;;;2.65;;
23169;SDS011;11753;43.144;24.714;2022-09-23T05:52:58;3.70;;;2.40;;
23169;SDS011;11753;43.144;24.714;2022-09-23T05:54:00;3.60;;;2.45;;
23169;SDS011;11753;43.144;24.714;2022-09-23T05:55:05;3.92;;;2.67;;
23169;SDS011;11753;43.144;24.714;2022-09-23T05:56:06;4.97;;;3.03;;
23169;SDS011;11753;43.144;24.714;2022-09-23T05:57:07;3.75;;;2.40;;
23169;SDS011;11753;43.144;24.714;2022-09-23T05:58:08;4.40;;;2.47;;
23169;SDS011;11753;43.144;24.714;2022-09-23T05:59:09;4.53;;;2.75;;
23169;SDS011;11753;43.144;24.714;2022-09-23T06:00:10;3.88;;;2.50;;
23169;SDS011;11753;43.144;24.714;2022-09-23T06:01:11;4.55;;;2.65;;
23169;SDS011;11753;43.144;24.714;2022-09-23T06:02:14;3.78;;;2.15;;
23169;SDS011;11753;43.144;24.714;2022-09-23T06:03:16;3.33;;;2.20;;
23169;SDS011;11753;43.144;24.714;2022-09-23T06:04:19;7.00;;;2.78;;
23169;SDS011;11753;43.144;24.714;2022-09-23T06:05:19;5.13;;;2.50;;
23169;SDS011;11753;43.144;24.714;2022-09-23T06:06:21;4.00;;;2.40;;
23169;SDS011;11753;43.144;24.714;2022-09-23T06:07:26;4.32;;;2.45;;
23169;SDS011;11753;43.144;24.714;2022-09-23T06:08:27;3.67;;;2.33;;
23169;SDS011;11753;43.144;24.714;2022-09-23T06:09:27;4.32;;;2.60;;
23169;SDS011;11753;43.144;24.714;2022-09-23T06:10:28;3.67;;;2.22;;
23169;SDS011;11753;43.144;24.714;2022-09-23T06:11:29;4.63;;;2.60;;
23169;SDS011;11753;43.144;24.714;2022-09-23T06:12:31;4.80;;;2.00;;
23169;SDS011;11753;43.144;24.714;2022-09-23T06:13:33;3.35;;;1.90;;
23169;SDS011;11753;43.144;24.714;2022-09-23T06:14:37;2.95;;;1.83;;
23169;SDS011;11753;43.144;24.714;2022-09-23T06:15:38;3.78;;;1.95;;
23169;SDS011;11753;43.144;24.714;2022-09-23T06:16:39;5.93;;;2.72;;
23169;SDS011;11753;43.144;24.714;2022-09-23T06:17:40;4.55;;;2.30;;
23169;SDS011;11753;43.144;24.714;2022-09-23T06:18:41;5.30;;;2.65;;
23169;SDS011;11753;43.144;24.714;2022-09-23T06:19:43;5.63;;;2.85;;
23169;SDS011;11753;43.144;24.714;2022-09-23T06:20:44;6.45;;;2.78;;
23169;SDS011;11753;43.144;24.714;2022-09-23T06:21:47;4.53;;;2.60;;
23169;SDS011;11753;43.144;24.714;2022-09-23T06:22:52;5.72;;;2.63;;
23169;SDS011;11753;43.144;24.714;2022-09-23T06:23:53;4.05;;;2.22;;
23169;SDS011;11753;43.144;24.714;2022-09-23T06:24:55;5.55;;;2.50;;
23169;SDS011;11753;43.144;24.714;2022-09-23T06:26:06;5.38;;;2.10;;
23169;SDS011;11753;43.144;24.714;2022-09-23T06:27:09;4.93;;;1.80;;
23169;SDS011;11753;43.144;24.714;2022-09-23T06:28:10;2.25;;;1.50;;
23169;SDS011;11753;43.144;24.714;2022-09-23T06:29:12;3.65;;;1.55;;
23169;SDS011;11753;43.144;24.714;2022-09-23T06:30:14;2.83;;;1.50;;
23169;SDS011;11753;43.144;24.714;2022-09-23T06:31:16;3.28;;;1.73;;
23169;SDS011;11753;43.144;24.714;2022-09-23T06:32:17;2.33;;;1.30;;
23169;SDS011;11753;43.144;24.714;2022-09-23T06:33:19;2.80;;;1.38;;
23169;SDS011;11753;43.144;24.714;2022-09-23T06:34:22;3.42;;;1.65;;
23169;SDS011;11753;43.144;24.714;2022-09-23T06:35:24;3.35;;;1.50;;
23169;SDS011;11753;43.144;24.714;2022-09-23T06:36:26;2.47;;;1.30;;
23169;SDS011;11753;43.144;24.714;2022-09-23T06:37:27;3.50;;;1.58;;
23169;SDS011;11753;43.144;24.714;2022-09-23T06:38:30;3.35;;;1.40;;
23169;SDS011;11753;43.144;24.714;2022-09-23T06:39:33;3.45;;;1.60;;
23169;SDS011;11753;43.144;24.714;2022-09-23T06:40:34;2.65;;;1.33;;
23169;SDS011;11753;43.144;24.714;2022-09-23T06:41:35;3.28;;;1.50;;
23169;SDS011;11753;43.144;24.714;2022-09-23T06:42:36;2.45;;;1.50;;
23169;SDS011;11753;43.144;24.714;2022-09-23T06:43:37;3.92;;;1.80;;
23169;SDS011;11753;43.144;24.714;2022-09-23T06:44:38;3.95;;;1.63;;
23169;SDS011;11753;43.144;24.714;2022-09-23T06:45:38;2.45;;;1.55;;
23169;SDS011;11753;43.144;24.714;2022-09-23T06:46:39;2.92;;;1.60;;
23169;SDS011;11753;43.144;24.714;2022-09-23T06:47:41;5.60;;;1.85;;
23169;SDS011;11753;43.144;24.714;2022-09-23T06:48:43;4.68;;;2.20;;
23169;SDS011;11753;43.144;24.714;2022-09-23T06:49:44;5.00;;;1.88;;
23169;SDS011;11753;43.144;24.714;2022-09-23T06:50:45;7.30;;;2.70;;
23169;SDS011;11753;43.144;24.714;2022-09-23T06:51:48;7.65;;;3.45;;
23169;SDS011;11753;43.144;24.714;2022-09-23T06:52:50;4.80;;;2.35;;
23169;SDS011;11753;43.144;24.714;2022-09-23T06:53:55;10.65;;;4.47;;
23169;SDS011;11753;43.144;24.714;2022-09-23T06:54:55;6.63;;;2.42;;
23169;SDS011;11753;43.144;24.714;2022-09-23T06:55:57;4.80;;;2.30;;
23169;SDS011;11753;43.144;24.714;2022-09-23T06:56:59;4.25;;;2.10;;
23169;SDS011;11753;43.144;24.714;2022-09-23T06:58:00;2.75;;;1.42;;
23169;SDS011;11753;43.144;24.714;2022-09-23T06:59:00;4.03;;;1.80;;
23169;SDS011;11753;43.144;24.714;2022-09-23T07:00:01;4.97;;;2.05;;
23169;SDS011;11753;43.144;24.714;2022-09-23T07:02:08;4.40;;;1.67;;
23169;SDS011;11753;43.144;24.714;2022-09-23T07:03:08;2.58;;;1.45;;
23169;SDS011;11753;43.144;24.714;2022-09-23T07:04:09;3.42;;;1.70;;
23169;SDS011;11753;43.144;24.714;2022-09-23T07:05:10;2.88;;;1.55;;
23169;SDS011;11753;43.144;24.714;2022-09-23T07:06:12;3.88;;;1.70;;
23169;SDS011;11753;43.144;24.714;2022-09-23T07:07:13;2.78;;;1.40;;
23169;SDS011;11753;43.144;24.714;2022-09-23T07:08:15;2.42;;;1.67;;
23169;SDS011;11753;43.144;24.714;2022-09-23T07:09:16;2.90;;;1.48;;
23169;SDS011;11753;43.144;24.714;2022-09-23T07:10:17;3.75;;;1.88;;
23169;SDS011;11753;43.144;24.714;2022-09-23T07:11:19;3.30;;;1.50;;